AUA202 EDDF-LOWW
Flight info
| Callsign | AUA202 |
|---|---|
| Flight time | 0h 57m |
| Altitude | 31000 |
| Route | SULUS7S/18 SULUS Z650 VEMUT/N0452F290 DCT BUDEX BUDEX2W |
| Aircraft | A320/M-SDE3FGHIRWY/LB1 |
Departure
| Time | 2026-05-05 12:29 |
|---|---|
| Airport | Frankfurt Main Airport (EDDF) |
Arrival
| Time | 2026-05-05 13:26 |
|---|---|
| Airport | Vienna International Airport (LOWW) |
| Time | Latitude | Longitude | Altitude | Speed | Heading |
|---|---|---|---|---|---|
| 2026-05-05 11:35 | 50.04403 | 8.56222 | 362 ft | 0 kts | 160° |
| 2026-05-05 12:16 | 50.04414 | 8.56216 | 363 ft | 4 kts | 154° |
| 2026-05-05 12:16 | 50.04437 | 8.56200 | 356 ft | 4 kts | 164° |
| 2026-05-05 12:17 | 50.04461 | 8.56198 | 356 ft | 4 kts | 207° |
| 2026-05-05 12:17 | 50.04478 | 8.56225 | 362 ft | 4 kts | 246° |
| 2026-05-05 12:17 | 50.04486 | 8.56257 | 363 ft | 3 kts | 250° |
| 2026-05-05 12:17 | 50.04496 | 8.56296 | 357 ft | 4 kts | 250° |
| 2026-05-05 12:18 | 50.04505 | 8.56335 | 363 ft | 4 kts | 250° |
| 2026-05-05 12:18 | 50.04514 | 8.56373 | 363 ft | 2 kts | 249° |
| 2026-05-05 12:18 | 50.04515 | 8.56375 | 363 ft | 0 kts | 249° |
| 2026-05-05 12:20 | 50.04514 | 8.56375 | 363 ft | 1 kts | 249° |
| 2026-05-05 12:20 | 50.04500 | 8.56314 | 361 ft | 11 kts | 249° |
| 2026-05-05 12:21 | 50.04469 | 8.56188 | 356 ft | 13 kts | 250° |
| 2026-05-05 12:21 | 50.04427 | 8.56043 | 356 ft | 14 kts | 220° |
| 2026-05-05 12:21 | 50.04334 | 8.56062 | 360 ft | 13 kts | 158° |
| 2026-05-05 12:21 | 50.04256 | 8.56010 | 361 ft | 16 kts | 247° |
| 2026-05-05 12:22 | 50.04214 | 8.55838 | 355 ft | 18 kts | 249° |
| 2026-05-05 12:22 | 50.04165 | 8.55640 | 355 ft | 21 kts | 249° |
| 2026-05-05 12:22 | 50.04115 | 8.55419 | 354 ft | 22 kts | 250° |
| 2026-05-05 12:22 | 50.04060 | 8.55190 | 356 ft | 23 kts | 250° |
| 2026-05-05 12:23 | 50.04003 | 8.54950 | 358 ft | 24 kts | 250° |
| 2026-05-05 12:23 | 50.03939 | 8.54691 | 353 ft | 27 kts | 249° |
| 2026-05-05 12:23 | 50.03873 | 8.54408 | 351 ft | 29 kts | 248° |
| 2026-05-05 12:23 | 50.03778 | 8.54135 | 352 ft | 29 kts | 250° |
| 2026-05-05 12:24 | 50.03707 | 8.53836 | 349 ft | 30 kts | 249° |
| 2026-05-05 12:24 | 50.03634 | 8.53545 | 339 ft | 27 kts | 249° |
| 2026-05-05 12:24 | 50.03567 | 8.53266 | 339 ft | 28 kts | 249° |
| 2026-05-05 12:24 | 50.03502 | 8.52994 | 336 ft | 25 kts | 249° |
| 2026-05-05 12:25 | 50.03450 | 8.52796 | 336 ft | 12 kts | 247° |
| 2026-05-05 12:25 | 50.03434 | 8.52733 | 335 ft | 0 kts | 249° |
| 2026-05-05 12:25 | 50.03432 | 8.52726 | 332 ft | 4 kts | 249° |
| 2026-05-05 12:26 | 50.03378 | 8.52596 | 334 ft | 13 kts | 193° |
| 2026-05-05 12:26 | 50.03333 | 8.52594 | 335 ft | 0 kts | 179° |
| 2026-05-05 12:28 | 50.03332 | 8.52594 | 335 ft | 1 kts | 179° |
| 2026-05-05 12:28 | 50.03175 | 8.52596 | 336 ft | 60 kts | 180° |
| 2026-05-05 12:28 | 50.02524 | 8.52603 | 335 ft | 125 kts | 180° |
| 2026-05-05 12:28 | 50.01489 | 8.52614 | 504 ft | 158 kts | 180° |
| 2026-05-05 12:29 | 50.00394 | 8.52625 | 1217 ft | 157 kts | 181° |
| 2026-05-05 12:29 | 49.99299 | 8.52622 | 1920 ft | 160 kts | 180° |
| 2026-05-05 12:29 | 49.98093 | 8.52611 | 2303 ft | 185 kts | 180° |
| 2026-05-05 12:29 | 49.96769 | 8.52993 | 2728 ft | 209 kts | 150° |
| 2026-05-05 12:30 | 49.95741 | 8.54741 | 3209 ft | 231 kts | 117° |
| 2026-05-05 12:30 | 49.95047 | 8.56972 | 4109 ft | 232 kts | 119° |
| 2026-05-05 12:30 | 49.94294 | 8.59224 | 4948 ft | 238 kts | 114° |
| 2026-05-05 12:30 | 49.93922 | 8.61766 | 5641 ft | 253 kts | 97° |
| 2026-05-05 12:31 | 49.93776 | 8.64609 | 6215 ft | 271 kts | 95° |
| 2026-05-05 12:31 | 49.93523 | 8.67544 | 7014 ft | 276 kts | 108° |
| 2026-05-05 12:31 | 49.92724 | 8.70245 | 7929 ft | 278 kts | 126° |
| 2026-05-05 12:31 | 49.91365 | 8.72394 | 8761 ft | 281 kts | 146° |
| 2026-05-05 12:32 | 49.89745 | 8.74078 | 9750 ft | 281 kts | 146° |
| 2026-05-05 12:32 | 49.88278 | 8.76124 | 10543 ft | 289 kts | 131° |
| 2026-05-05 12:32 | 49.87138 | 8.78857 | 10870 ft | 313 kts | 120° |
| 2026-05-05 12:32 | 49.86052 | 8.81922 | 11130 ft | 336 kts | 120° |
| 2026-05-05 12:33 | 49.84918 | 8.85133 | 11668 ft | 347 kts | 120° |
| 2026-05-05 12:33 | 49.83746 | 8.88431 | 12393 ft | 353 kts | 120° |
| 2026-05-05 12:33 | 49.82546 | 8.91777 | 13142 ft | 357 kts | 120° |
| 2026-05-05 12:33 | 49.81324 | 8.95155 | 13868 ft | 361 kts | 121° |
| 2026-05-05 12:34 | 49.80088 | 8.98556 | 14537 ft | 364 kts | 121° |
| 2026-05-05 12:34 | 49.78832 | 9.01991 | 15205 ft | 368 kts | 121° |
| 2026-05-05 12:34 | 49.77563 | 9.05452 | 15880 ft | 371 kts | 121° |
| 2026-05-05 12:34 | 49.76380 | 9.09025 | 16514 ft | 377 kts | 115° |
| 2026-05-05 12:35 | 49.75596 | 9.12953 | 17159 ft | 384 kts | 106° |
| 2026-05-05 12:35 | 49.74963 | 9.16979 | 17799 ft | 388 kts | 107° |
| 2026-05-05 12:35 | 49.74316 | 9.21040 | 18391 ft | 391 kts | 107° |
| 2026-05-05 12:35 | 49.73654 | 9.25149 | 18961 ft | 395 kts | 107° |
| 2026-05-05 12:36 | 49.72984 | 9.29273 | 19558 ft | 398 kts | 107° |
| 2026-05-05 12:36 | 49.72303 | 9.33447 | 20127 ft | 400 kts | 107° |
| 2026-05-05 12:36 | 49.71619 | 9.37636 | 20709 ft | 403 kts | 107° |
| 2026-05-05 12:36 | 49.70930 | 9.41847 | 21267 ft | 406 kts | 107° |
| 2026-05-05 12:37 | 49.70233 | 9.46090 | 21810 ft | 409 kts | 107° |
| 2026-05-05 12:37 | 49.69528 | 9.50362 | 22336 ft | 412 kts | 107° |
| 2026-05-05 12:37 | 49.68815 | 9.54671 | 22829 ft | 415 kts | 107° |
| 2026-05-05 12:37 | 49.68107 | 9.58943 | 23313 ft | 418 kts | 107° |
| 2026-05-05 12:38 | 49.67521 | 9.63371 | 23735 ft | 424 kts | 99° |
| 2026-05-05 12:38 | 49.67422 | 9.67949 | 24133 ft | 430 kts | 89° |
| 2026-05-05 12:38 | 49.67854 | 9.72544 | 24512 ft | 437 kts | 79° |
| 2026-05-05 12:38 | 49.68661 | 9.77100 | 24881 ft | 441 kts | 77° |
| 2026-05-05 12:39 | 49.69481 | 9.81672 | 25247 ft | 444 kts | 77° |
| 2026-05-05 12:39 | 49.70296 | 9.86283 | 25612 ft | 446 kts | 78° |
| 2026-05-05 12:39 | 49.71142 | 9.90917 | 25957 ft | 451 kts | 74° |
| 2026-05-05 12:39 | 49.72353 | 9.95406 | 26297 ft | 457 kts | 65° |
| 2026-05-05 12:40 | 49.74027 | 9.99622 | 26623 ft | 462 kts | 57° |
| 2026-05-05 12:40 | 49.75915 | 10.03674 | 26953 ft | 465 kts | 57° |
| 2026-05-05 12:40 | 49.77812 | 10.07760 | 27255 ft | 469 kts | 56° |
| 2026-05-05 12:40 | 49.79721 | 10.11885 | 27551 ft | 472 kts | 56° |
| 2026-05-05 12:41 | 49.81636 | 10.16034 | 27869 ft | 475 kts | 56° |
| 2026-05-05 12:41 | 49.83556 | 10.20207 | 28177 ft | 477 kts | 56° |
| 2026-05-05 12:41 | 49.85483 | 10.24408 | 28471 ft | 479 kts | 57° |
| 2026-05-05 12:41 | 49.87417 | 10.28638 | 28756 ft | 482 kts | 57° |
| 2026-05-05 12:42 | 49.89359 | 10.32888 | 29023 ft | 484 kts | 57° |
| 2026-05-05 12:42 | 49.91313 | 10.37164 | 29291 ft | 486 kts | 57° |
| 2026-05-05 12:42 | 49.93252 | 10.41411 | 29549 ft | 489 kts | 57° |
| 2026-05-05 12:42 | 49.95217 | 10.45724 | 29787 ft | 491 kts | 56° |
| 2026-05-05 12:43 | 49.97193 | 10.50062 | 30026 ft | 492 kts | 56° |
| 2026-05-05 12:43 | 49.99170 | 10.54407 | 30272 ft | 492 kts | 56° |
| 2026-05-05 12:43 | 50.01140 | 10.58745 | 30558 ft | 491 kts | 56° |
| 2026-05-05 12:43 | 50.02971 | 10.63206 | 30834 ft | 489 kts | 64° |
| 2026-05-05 12:44 | 50.04303 | 10.68049 | 31131 ft | 485 kts | 75° |
| 2026-05-05 12:44 | 50.05099 | 10.73127 | 31416 ft | 481 kts | 85° |
| 2026-05-05 12:44 | 50.05354 | 10.78288 | 31699 ft | 476 kts | 94° |
| 2026-05-05 12:44 | 50.05077 | 10.83378 | 31975 ft | 471 kts | 104° |
| 2026-05-05 12:45 | 50.04287 | 10.88282 | 32251 ft | 465 kts | 112° |
| 2026-05-05 12:45 | 50.03270 | 10.93060 | 32541 ft | 465 kts | 113° |
| 2026-05-05 12:45 | 50.02252 | 10.97837 | 32837 ft | 465 kts | 113° |
| 2026-05-05 12:45 | 50.01237 | 11.02604 | 33094 ft | 465 kts | 112° |
| 2026-05-05 12:46 | 50.00221 | 11.07375 | 33358 ft | 465 kts | 112° |
| 2026-05-05 12:46 | 49.99206 | 11.12150 | 33655 ft | 465 kts | 112° |
| 2026-05-05 12:46 | 49.98187 | 11.16925 | 33930 ft | 465 kts | 112° |
| 2026-05-05 12:46 | 49.97166 | 11.21691 | 34190 ft | 465 kts | 112° |
| 2026-05-05 12:47 | 49.96149 | 11.26445 | 34450 ft | 464 kts | 112° |
| 2026-05-05 12:47 | 49.95138 | 11.31205 | 34714 ft | 464 kts | 112° |
| 2026-05-05 12:47 | 49.94131 | 11.35956 | 34981 ft | 463 kts | 112° |
| 2026-05-05 12:47 | 49.93121 | 11.40710 | 35235 ft | 462 kts | 112° |
| 2026-05-05 12:48 | 49.92154 | 11.45466 | 35452 ft | 463 kts | 111° |
| 2026-05-05 12:48 | 49.91252 | 11.50272 | 35690 ft | 463 kts | 109° |
| 2026-05-05 12:48 | 49.90407 | 11.55021 | 35894 ft | 463 kts | 109° |
| 2026-05-05 12:48 | 49.89563 | 11.59845 | 36116 ft | 463 kts | 109° |
| 2026-05-05 12:49 | 49.88714 | 11.64659 | 36333 ft | 462 kts | 109° |
| 2026-05-05 12:49 | 49.88017 | 11.69542 | 36532 ft | 466 kts | 102° |
| 2026-05-05 12:49 | 49.87583 | 11.74523 | 36727 ft | 466 kts | 101° |
| 2026-05-05 12:49 | 49.87144 | 11.79503 | 36794 ft | 466 kts | 101° |
| 2026-05-05 12:50 | 49.86252 | 11.89454 | 36789 ft | 466 kts | 101° |
| 2026-05-05 12:50 | 49.85347 | 11.99407 | 36794 ft | 466 kts | 101° |
| 2026-05-05 12:51 | 49.84446 | 12.09348 | 36792 ft | 466 kts | 101° |
| 2026-05-05 12:51 | 49.83542 | 12.19301 | 36789 ft | 466 kts | 101° |
| 2026-05-05 12:52 | 49.82639 | 12.29181 | 36792 ft | 466 kts | 101° |
| 2026-05-05 12:52 | 49.81712 | 12.39128 | 36778 ft | 466 kts | 103° |
| 2026-05-05 12:53 | 49.79747 | 12.48556 | 36784 ft | 458 kts | 121° |
| 2026-05-05 12:53 | 49.76334 | 12.56797 | 36786 ft | 454 kts | 128° |
| 2026-05-05 12:54 | 49.70942 | 12.68851 | 36775 ft | 454 kts | 128° |
| 2026-05-05 12:55 | 49.67344 | 12.76885 | 36775 ft | 455 kts | 128° |
| 2026-05-05 12:55 | 49.63730 | 12.84907 | 36778 ft | 455 kts | 128° |
| 2026-05-05 12:56 | 49.60107 | 12.92925 | 36778 ft | 456 kts | 128° |
| 2026-05-05 12:56 | 49.56495 | 13.00915 | 36783 ft | 456 kts | 128° |
| 2026-05-05 12:57 | 49.52861 | 13.08924 | 36789 ft | 456 kts | 128° |
| 2026-05-05 12:57 | 49.49198 | 13.16975 | 36804 ft | 456 kts | 128° |
| 2026-05-05 12:58 | 49.45552 | 13.24960 | 36808 ft | 456 kts | 129° |
| 2026-05-05 12:58 | 49.41896 | 13.32932 | 36800 ft | 456 kts | 129° |
| 2026-05-05 12:59 | 49.38258 | 13.40832 | 36809 ft | 456 kts | 129° |
| 2026-05-05 12:59 | 49.34598 | 13.48784 | 36799 ft | 456 kts | 128° |
| 2026-05-05 13:00 | 49.29097 | 13.60691 | 36798 ft | 456 kts | 129° |
| 2026-05-05 13:01 | 49.21725 | 13.76530 | 36810 ft | 457 kts | 129° |
| 2026-05-05 13:01 | 49.18027 | 13.84438 | 36798 ft | 457 kts | 129° |
| 2026-05-05 13:02 | 49.14328 | 13.92352 | 36413 ft | 457 kts | 128° |
| 2026-05-05 13:02 | 49.12482 | 13.96296 | 35669 ft | 456 kts | 128° |
| 2026-05-05 13:02 | 49.10634 | 14.00230 | 34912 ft | 456 kts | 129° |
| 2026-05-05 13:03 | 49.08785 | 14.04157 | 34164 ft | 456 kts | 129° |
| 2026-05-05 13:03 | 49.06930 | 14.08086 | 33348 ft | 456 kts | 129° |
| 2026-05-05 13:03 | 49.05098 | 14.11958 | 32442 ft | 457 kts | 128° |
| 2026-05-05 13:03 | 49.03235 | 14.15898 | 31490 ft | 459 kts | 128° |
| 2026-05-05 13:04 | 49.01361 | 14.19858 | 30737 ft | 461 kts | 128° |
| 2026-05-05 13:04 | 48.99487 | 14.23815 | 30438 ft | 465 kts | 128° |
| 2026-05-05 13:04 | 48.97741 | 14.27976 | 30174 ft | 468 kts | 124° |
| 2026-05-05 13:04 | 48.96056 | 14.32227 | 29923 ft | 470 kts | 123° |
| 2026-05-05 13:05 | 48.94394 | 14.36524 | 29653 ft | 471 kts | 122° |
| 2026-05-05 13:05 | 48.92750 | 14.40834 | 29374 ft | 472 kts | 122° |
| 2026-05-05 13:05 | 48.91108 | 14.45152 | 29090 ft | 472 kts | 122° |
| 2026-05-05 13:05 | 48.89461 | 14.49460 | 28811 ft | 472 kts | 122° |
| 2026-05-05 13:06 | 48.87798 | 14.53762 | 28540 ft | 471 kts | 123° |
| 2026-05-05 13:06 | 48.86131 | 14.58032 | 28270 ft | 469 kts | 123° |
| 2026-05-05 13:06 | 48.84462 | 14.62279 | 27990 ft | 467 kts | 123° |
| 2026-05-05 13:06 | 48.82796 | 14.66510 | 27725 ft | 465 kts | 123° |
| 2026-05-05 13:07 | 48.81145 | 14.70705 | 27329 ft | 460 kts | 123° |
| 2026-05-05 13:07 | 48.79650 | 14.74962 | 26616 ft | 456 kts | 114° |
| 2026-05-05 13:07 | 48.78554 | 14.79453 | 25925 ft | 451 kts | 112° |
| 2026-05-05 13:07 | 48.77503 | 14.83837 | 25267 ft | 446 kts | 111° |
| 2026-05-05 13:08 | 48.76451 | 14.88234 | 24636 ft | 441 kts | 111° |
| 2026-05-05 13:08 | 48.75401 | 14.92641 | 23991 ft | 437 kts | 111° |
| 2026-05-05 13:08 | 48.74375 | 14.96946 | 23376 ft | 432 kts | 111° |
| 2026-05-05 13:08 | 48.73368 | 15.01153 | 22620 ft | 429 kts | 111° |
| 2026-05-05 13:09 | 48.72346 | 15.05394 | 21921 ft | 426 kts | 111° |
| 2026-05-05 13:09 | 48.71333 | 15.09597 | 21279 ft | 423 kts | 111° |
| 2026-05-05 13:09 | 48.70332 | 15.13744 | 20783 ft | 417 kts | 111° |
| 2026-05-05 13:09 | 48.69339 | 15.17845 | 20191 ft | 413 kts | 112° |
| 2026-05-05 13:10 | 48.68351 | 15.21918 | 19574 ft | 412 kts | 112° |
| 2026-05-05 13:10 | 48.67366 | 15.25976 | 19024 ft | 409 kts | 112° |
| 2026-05-05 13:10 | 48.66388 | 15.29995 | 18504 ft | 406 kts | 112° |
| 2026-05-05 13:10 | 48.65415 | 15.33987 | 17973 ft | 403 kts | 112° |
| 2026-05-05 13:11 | 48.64774 | 15.36613 | 17580 ft | 401 kts | 112° |
| 2026-05-05 13:11 | 48.63811 | 15.40561 | 16952 ft | 399 kts | 112° |
| 2026-05-05 13:11 | 48.62850 | 15.44482 | 16378 ft | 396 kts | 112° |
| 2026-05-05 13:11 | 48.61899 | 15.48364 | 15855 ft | 393 kts | 112° |
| 2026-05-05 13:12 | 48.60951 | 15.52219 | 15313 ft | 390 kts | 112° |
| 2026-05-05 13:12 | 48.60006 | 15.56052 | 14790 ft | 387 kts | 112° |
| 2026-05-05 13:12 | 48.59068 | 15.59847 | 14271 ft | 384 kts | 112° |
| 2026-05-05 13:12 | 48.58140 | 15.63599 | 13760 ft | 381 kts | 112° |
| 2026-05-05 13:13 | 48.57212 | 15.67340 | 13184 ft | 378 kts | 112° |
| 2026-05-05 13:13 | 48.56292 | 15.71042 | 12631 ft | 375 kts | 113° |
| 2026-05-05 13:13 | 48.55384 | 15.74706 | 12120 ft | 370 kts | 112° |
| 2026-05-05 13:13 | 48.54486 | 15.78324 | 11547 ft | 366 kts | 112° |
| 2026-05-05 13:14 | 48.53595 | 15.81901 | 11069 ft | 360 kts | 112° |
| 2026-05-05 13:14 | 48.52718 | 15.85423 | 10520 ft | 357 kts | 112° |
| 2026-05-05 13:14 | 48.51864 | 15.88852 | 10020 ft | 352 kts | 113° |
| 2026-05-05 13:14 | 48.51013 | 15.92262 | 9799 ft | 339 kts | 113° |
| 2026-05-05 13:15 | 48.50196 | 15.95531 | 9661 ft | 315 kts | 113° |
| 2026-05-05 13:15 | 48.49451 | 15.98509 | 9454 ft | 293 kts | 113° |
| 2026-05-05 13:15 | 48.48748 | 16.01304 | 8959 ft | 287 kts | 114° |
| 2026-05-05 13:15 | 48.48040 | 16.04094 | 8624 ft | 284 kts | 114° |
| 2026-05-05 13:16 | 48.47336 | 16.06869 | 8248 ft | 282 kts | 113° |
| 2026-05-05 13:16 | 48.46639 | 16.09623 | 7884 ft | 280 kts | 113° |
| 2026-05-05 13:16 | 48.45947 | 16.12361 | 7493 ft | 279 kts | 114° |
| 2026-05-05 13:16 | 48.45259 | 16.15091 | 7113 ft | 278 kts | 114° |
| 2026-05-05 13:17 | 48.44573 | 16.17805 | 6723 ft | 276 kts | 116° |
| 2026-05-05 13:17 | 48.43904 | 16.20461 | 6572 ft | 265 kts | 116° |
| 2026-05-05 13:17 | 48.43275 | 16.22976 | 6442 ft | 249 kts | 116° |
| 2026-05-05 13:17 | 48.42669 | 16.25375 | 6144 ft | 243 kts | 117° |
| 2026-05-05 13:18 | 48.42068 | 16.27734 | 5812 ft | 240 kts | 117° |
| 2026-05-05 13:18 | 48.41479 | 16.30035 | 5637 ft | 230 kts | 117° |
| 2026-05-05 13:18 | 48.40917 | 16.32230 | 5457 ft | 221 kts | 117° |
| 2026-05-05 13:18 | 48.40369 | 16.34372 | 5202 ft | 218 kts | 118° |
| 2026-05-05 13:19 | 48.39827 | 16.36480 | 5032 ft | 213 kts | 117° |
| 2026-05-05 13:19 | 48.39288 | 16.38574 | 4968 ft | 216 kts | 117° |
| 2026-05-05 13:19 | 48.38682 | 16.40636 | 4987 ft | 215 kts | 124° |
| 2026-05-05 13:19 | 48.37975 | 16.42608 | 4997 ft | 214 kts | 125° |
| 2026-05-05 13:20 | 48.37243 | 16.44563 | 4984 ft | 214 kts | 126° |
| 2026-05-05 13:20 | 48.36468 | 16.46423 | 4989 ft | 210 kts | 137° |
| 2026-05-05 13:20 | 48.35357 | 16.47758 | 4987 ft | 202 kts | 158° |
| 2026-05-05 13:20 | 48.34056 | 16.48437 | 4910 ft | 194 kts | 167° |
| 2026-05-05 13:21 | 48.32771 | 16.48980 | 4708 ft | 190 kts | 168° |
| 2026-05-05 13:21 | 48.31509 | 16.49515 | 4472 ft | 187 kts | 168° |
| 2026-05-05 13:21 | 48.30264 | 16.50045 | 4233 ft | 185 kts | 168° |
| 2026-05-05 13:21 | 48.29039 | 16.50567 | 3991 ft | 181 kts | 168° |
| 2026-05-05 13:22 | 48.27840 | 16.51079 | 3739 ft | 177 kts | 168° |
| 2026-05-05 13:22 | 48.26657 | 16.51582 | 3503 ft | 175 kts | 168° |
| 2026-05-05 13:22 | 48.25496 | 16.52076 | 3283 ft | 173 kts | 167° |
| 2026-05-05 13:22 | 48.24342 | 16.52567 | 3067 ft | 171 kts | 167° |
| 2026-05-05 13:23 | 48.23215 | 16.53048 | 2858 ft | 166 kts | 167° |
| 2026-05-05 13:23 | 48.22116 | 16.53515 | 2625 ft | 162 kts | 167° |
| 2026-05-05 13:23 | 48.21054 | 16.53967 | 2415 ft | 153 kts | 167° |
| 2026-05-05 13:23 | 48.20069 | 16.54386 | 2216 ft | 142 kts | 168° |
| 2026-05-05 13:24 | 48.19151 | 16.54776 | 2044 ft | 134 kts | 168° |
| 2026-05-05 13:24 | 48.18257 | 16.55155 | 1868 ft | 133 kts | 167° |
| 2026-05-05 13:24 | 48.17375 | 16.55529 | 1699 ft | 131 kts | 167° |
| 2026-05-05 13:24 | 48.16504 | 16.55898 | 1547 ft | 129 kts | 167° |
| 2026-05-05 13:25 | 48.15663 | 16.56257 | 1405 ft | 128 kts | 166° |
| 2026-05-05 13:25 | 48.14790 | 16.56624 | 1219 ft | 133 kts | 167° |
| 2026-05-05 13:25 | 48.13876 | 16.57008 | 1038 ft | 134 kts | 166° |
| 2026-05-05 13:25 | 48.12991 | 16.57385 | 839 ft | 132 kts | 166° |
| 2026-05-05 13:26 | 48.12128 | 16.57756 | 690 ft | 126 kts | 167° |
| 2026-05-05 13:26 | 48.11319 | 16.58095 | 618 ft | 109 kts | 165° |
| 2026-05-05 13:26 | 48.10726 | 16.58351 | 614 ft | 64 kts | 164° |
| 2026-05-05 13:26 | 48.10439 | 16.58458 | 611 ft | 32 kts | 171° |
| 2026-05-05 13:27 | 48.10266 | 16.58453 | 613 ft | 21 kts | 194° |
| 2026-05-05 13:27 | 48.10156 | 16.58406 | 609 ft | 12 kts | 204° |
| 2026-05-05 13:27 | 48.10153 | 16.58310 | 615 ft | 11 kts | 332° |
| 2026-05-05 13:27 | 48.10230 | 16.58278 | 616 ft | 12 kts | 344° |
| 2026-05-05 13:28 | 48.10314 | 16.58242 | 622 ft | 14 kts | 344° |
| 2026-05-05 13:28 | 48.10420 | 16.58197 | 611 ft | 17 kts | 344° |
| 2026-05-05 13:28 | 48.10538 | 16.58147 | 620 ft | 19 kts | 344° |
| 2026-05-05 13:28 | 48.10674 | 16.58090 | 623 ft | 23 kts | 344° |
| 2026-05-05 13:29 | 48.10829 | 16.58025 | 617 ft | 23 kts | 344° |
| 2026-05-05 13:29 | 48.10978 | 16.57961 | 618 ft | 22 kts | 343° |
| 2026-05-05 13:29 | 48.11118 | 16.57902 | 616 ft | 20 kts | 344° |
| 2026-05-05 13:29 | 48.11250 | 16.57846 | 623 ft | 19 kts | 344° |
| 2026-05-05 13:30 | 48.11372 | 16.57794 | 610 ft | 18 kts | 343° |
| 2026-05-05 13:30 | 48.11489 | 16.57744 | 621 ft | 17 kts | 345° |
| 2026-05-05 13:30 | 48.11601 | 16.57698 | 614 ft | 17 kts | 344° |
| 2026-05-05 13:30 | 48.11713 | 16.57651 | 616 ft | 16 kts | 344° |
| 2026-05-05 13:31 | 48.11818 | 16.57598 | 625 ft | 15 kts | 322° |
| 2026-05-05 13:31 | 48.11818 | 16.57456 | 620 ft | 15 kts | 254° |
| 2026-05-05 13:31 | 48.11823 | 16.57308 | 620 ft | 15 kts | 296° |
| 2026-05-05 13:31 | 48.11854 | 16.57180 | 610 ft | 11 kts | 268° |
| 2026-05-05 13:32 | 48.11877 | 16.57074 | 621 ft | 11 kts | 296° |
| 2026-05-05 13:32 | 48.11903 | 16.56982 | 617 ft | 6 kts | 272° |
| 2026-05-05 13:32 | 48.11872 | 16.56951 | 610 ft | 5 kts | 204° |
| 2026-05-05 13:32 | 48.11845 | 16.56931 | 618 ft | 0 kts | 206° |